Time;durP1;ratioP1;P1;durP2;ratioP2;P2;SDS_P1;SDS_P2;PMS_P1;PMS_P2;Temp;Humidity;BMP_temperature;BMP_pressure;BME280_temperature;BME280_humidity;BME280_pressure;Samples;Min_cycle;Max_cycle;Signal;HPM_P1;HPM_P2
2022/01/16 00:01:17;;;;;;;4.03;3.72;;;23.10;44.70;;;;;;4957998;28;20185;-72
2022/01/16 00:06:27;;;;;;;4.25;3.85;;;23.10;44.80;;;;;;4973793;28;20676;-72
2022/01/16 00:08:53;;;;;;;3.88;3.58;;;23.10;44.80;;;;;;4973824;28;20245;-72
2022/01/16 00:11:19;;;;;;;3.60;3.30;;;23.10;44.80;;;;;;4974007;28;20185;-72
2022/01/16 00:13:45;;;;;;;3.95;3.65;;;23.10;44.80;;;;;;4973925;28;20177;-72
2022/01/16 00:16:13;;;;;;;4.13;3.83;;;23.10;44.70;;;;;;4957549;28;20180;-72
2022/01/16 00:18:49;;;;;;;3.75;3.45;;;23.10;44.80;;;;;;4974002;28;20217;-72
2022/01/16 00:21:39;;;;;;;3.60;3.38;;;23.10;44.70;;;;;;4957994;28;20213;-72
2022/01/16 00:24:06;;;;;;;3.83;3.53;;;23.10;44.70;;;;;;4973780;28;20217;-72
2022/01/16 00:26:33;;;;;;;3.90;3.60;;;23.10;44.70;;;;;;4975021;28;20566;-72
2022/01/16 00:28:58;;;;;;;4.10;3.80;;;23.10;44.70;;;;;;4973449;28;20214;-72
2022/01/16 00:31:24;;;;;;;4.50;4.20;;;23.10;44.80;;;;;;4973755;28;20186;-72
2022/01/16 00:33:51;;;;;;;4.10;3.80;;;23.10;44.70;;;;;;4973656;28;20178;-72
2022/01/16 00:36:19;;;;;;;4.57;4.18;;;23.10;44.70;;;;;;4973607;28;20177;-72
2022/01/16 00:38:48;;;;;;;3.90;3.60;;;23.10;44.80;;;;;;4973302;28;20213;-72
2022/01/16 00:41:17;;;;;;;4.53;4.22;;;23.10;44.80;;;;;;4957212;28;20735;-72
2022/01/16 00:43:44;;;;;;;3.97;3.67;;;23.10;44.80;;;;;;4973624;28;20189;-72
2022/01/16 00:46:10;;;;;;;4.38;4.07;;;23.20;44.80;;;;;;4973053;28;20185;-71
2022/01/16 00:48:36;;;;;;;3.38;3.17;;;23.10;44.80;;;;;;4973192;28;20210;-72
2022/01/16 00:51:03;;;;;;;3.60;3.38;;;23.10;44.80;;;;;;4957041;28;20185;-72
2022/01/16 00:53:29;;;;;;;3.75;3.45;;;23.10;44.80;;;;;;4973539;28;20187;-72
2022/01/16 00:55:55;;;;;;;3.92;3.63;;;23.10;44.80;;;;;;4957127;28;20220;-72
2022/01/16 00:58:21;;;;;;;3.55;3.25;;;23.10;44.80;;;;;;4957622;28;20217;-72
2022/01/16 01:00:47;;;;;;;3.95;3.65;;;23.10;44.80;;;;;;4957326;28;20182;-72
2022/01/16 01:03:14;;;;;;;3.80;3.50;;;23.10;44.70;;;;;;4973304;28;20252;-71
2022/01/16 01:05:40;;;;;;;3.55;3.35;;;23.10;44.70;;;;;;4972842;28;20204;-71
2022/01/16 01:08:07;;;;;;;3.45;3.25;;;23.20;44.80;;;;;;4973047;28;20228;-71
2022/01/16 01:10:37;;;;;;;3.63;3.33;;;23.10;44.80;;;;;;4956755;28;20188;-72
2022/01/16 01:13:55;;;;;;;3.45;3.20;;;23.10;44.80;;;;;;4989145;28;20224;-72
2022/01/16 01:16:04;;;;;;;4.50;4.10;;;23.10;44.70;;;;;;4972586;28;20232;-72
2022/01/16 01:18:33;;;;;;;3.80;3.50;;;23.20;44.80;;;;;;4956679;28;20296;-72
2022/01/16 01:21:02;;;;;;;4.07;3.78;;;23.20;44.90;;;;;;4956707;28;20581;-72
2022/01/16 01:23:29;;;;;;;4.35;4.03;;;23.10;44.80;;;;;;4972825;28;20198;-72
2022/01/16 01:25:55;;;;;;;4.25;3.92;;;23.10;44.80;;;;;;4972386;28;20190;-73
2022/01/16 01:28:21;;;;;;;4.00;3.70;;;23.10;44.80;;;;;;4995785;23;20303;-72
2022/01/16 01:30:47;;;;;;;3.92;3.63;;;23.10;44.80;;;;;;4956530;28;20678;-72
2022/01/16 01:33:15;;;;;;;3.80;3.50;;;23.10;44.80;;;;;;4956402;28;20200;-73
2022/01/16 01:35:42;;;;;;;3.78;3.47;;;23.10;44.80;;;;;;4956156;28;20190;-72
2022/01/16 01:38:11;;;;;;;3.95;3.65;;;23.20;44.80;;;;;;4956591;28;20703;-72
2022/01/16 01:40:39;;;;;;;3.72;3.42;;;23.10;44.80;;;;;;4973634;28;20264;-72
2022/01/16 01:51:02;;;;;;;3.70;3.40;;;23.10;44.80;;;;;;4956198;28;20192;-72
2022/01/16 01:51:31;;;;;;;4.15;3.85;;;23.10;44.80;;;;;;4956128;28;20200;-72
2022/01/16 01:53:58;;;;;;;3.53;3.25;;;23.10;44.80;;;;;;4973549;28;20661;-72
2022/01/16 01:56:26;;;;;;;3.78;3.47;;;23.10;44.80;;;;;;4973413;28;20184;-72
2022/01/16 01:58:58;;;;;;;4.10;3.80;;;23.10;44.80;;;;;;4956423;28;20217;-72
2022/01/16 02:01:26;;;;;;;3.42;3.22;;;23.10;44.80;;;;;;4956327;28;20232;-72
2022/01/16 02:03:53;;;;;;;3.90;3.60;;;23.10;44.80;;;;;;4940270;28;20343;-72
2022/01/16 02:06:28;;;;;;;3.55;3.35;;;23.10;44.80;;;;;;4939981;28;20288;-72
2022/01/16 02:08:58;;;;;;;3.83;3.53;;;23.10;44.80;;;;;;4955924;28;20244;-72
2022/01/16 02:11:29;;;;;;;3.47;3.28;;;23.20;44.80;;;;;;4956143;28;20191;-72
2022/01/16 02:14:12;;;;;;;4.43;4.03;;;23.20;44.80;;;;;;4956191;28;20177;-72
2022/01/16 02:28:23;;;;;;;4.50;4.10;;;23.10;44.80;;;;;;4959544;28;20585;-72
2022/01/16 02:36:19;;;;;;;3.70;3.50;;;23.10;44.80;;;;;;4959642;28;20181;-72
2022/01/16 02:38:46;;;;;;;3.38;3.17;;;23.10;44.80;;;;;;4976899;28;20209;-72
2022/01/16 02:41:12;;;;;;;4.00;3.70;;;23.20;44.80;;;;;;4959561;28;20194;-72
2022/01/16 02:43:44;;;;;;;3.88;3.58;;;23.10;44.80;;;;;;4959722;28;20245;-72
2022/01/16 02:48:46;;;;;;;3.83;3.53;;;23.10;44.70;;;;;;4959293;28;20581;-72
2022/01/16 02:51:22;;;;;;;3.47;3.17;;;23.20;44.80;;;;;;4976677;28;20178;-72
2022/01/16 02:53:49;;;;;;;4.22;3.88;;;23.10;44.70;;;;;;4959328;28;20237;-72
2022/01/16 02:56:17;;;;;;;4.20;3.90;;;23.10;44.80;;;;;;4976519;28;20551;-72
2022/01/16 02:58:44;;;;;;;4.18;3.88;;;23.10;44.80;;;;;;4959251;28;20268;-72
2022/01/16 03:01:11;;;;;;;4.45;4.15;;;23.10;44.80;;;;;;4943471;28;20280;-72
2022/01/16 03:03:37;;;;;;;4.40;4.10;;;23.20;44.80;;;;;;4943604;28;20189;-72
2022/01/16 03:06:03;;;;;;;4.57;4.18;;;23.20;44.80;;;;;;4959056;28;20193;-72
2022/01/16 03:08:29;;;;;;;4.32;3.97;;;23.20;44.80;;;;;;4959011;28;20219;-72
2022/01/16 03:13:26;;;;;;;3.97;3.67;;;23.10;44.70;;;;;;4959052;28;20320;-72
2022/01/16 03:15:54;;;;;;;3.83;3.53;;;23.10;44.80;;;;;;4942960;28;20185;-72
2022/01/16 03:23:31;;;;;;;3.42;3.22;;;23.10;44.80;;;;;;4959046;28;20189;-72
2022/01/16 03:25:57;;;;;;;4.07;3.78;;;23.10;44.70;;;;;;4942495;28;20201;-72
2022/01/16 03:28:25;;;;;;;3.67;3.38;;;23.20;44.80;;;;;;4957147;28;20254;-72
2022/01/16 03:30:52;;;;;;;3.80;3.50;;;23.20;44.80;;;;;;4950924;29;20194;-73
2022/01/16 03:33:20;;;;;;;3.90;3.60;;;23.20;44.80;;;;;;4923966;29;20187;-72
2022/01/16 03:35:48;;;;;;;4.10;3.80;;;23.10;44.70;;;;;;4955810;29;20189;-71
2022/01/16 03:38:14;;;;;;;4.43;4.13;;;23.10;44.80;;;;;;4941033;28;20301;-72
2022/01/16 03:40:40;;;;;;;4.40;4.10;;;23.10;44.70;;;;;;4961190;28;20193;-72
2022/01/16 03:43:14;;;;;;;4.60;4.20;;;23.10;44.80;;;;;;4958692;28;20197;-72
2022/01/16 03:45:45;;;;;;;4.13;3.83;;;23.20;44.80;;;;;;4942205;28;20200;-72
2022/01/16 03:48:15;;;;;;;4.57;4.25;;;23.20;44.80;;;;;;4958191;28;20226;-72
2022/01/16 03:50:41;;;;;;;4.40;4.10;;;23.10;44.80;;;;;;4942388;28;20333;-72
2022/01/16 03:53:07;;;;;;;4.30;4.00;;;23.10;44.70;;;;;;4958344;28;20188;-72
2022/01/16 03:55:34;;;;;;;3.85;3.55;;;23.10;44.80;;;;;;4958201;28;20194;-72
2022/01/16 03:58:00;;;;;;;3.63;3.33;;;23.20;44.80;;;;;;4942296;28;20217;-72
2022/01/16 04:00:26;;;;;;;3.58;3.28;;;23.10;44.70;;;;;;4942613;28;20194;-72
2022/01/16 04:02:53;;;;;;;3.80;3.60;;;23.10;44.70;;;;;;4975501;28;20240;-72
2022/01/16 04:05:19;;;;;;;3.42;3.17;;;23.10;44.60;;;;;;4958012;28;20193;-72
2022/01/16 04:07:45;;;;;;;3.85;3.55;;;23.10;44.70;;;;;;4941805;28;20203;-72
2022/01/16 04:10:11;;;;;;;3.55;3.33;;;23.10;44.70;;;;;;4942132;28;20178;-72
2022/01/16 04:12:38;;;;;;;3.80;3.50;;;23.10;44.70;;;;;;4941812;28;20189;-72
2022/01/16 04:17:42;;;;;;;3.83;3.53;;;23.10;44.70;;;;;;4975151;28;20204;-72
2022/01/16 04:20:09;;;;;;;3.95;3.65;;;23.10;44.70;;;;;;4957877;28;20277;-72
2022/01/16 04:22:35;;;;;;;4.18;3.88;;;23.10;44.70;;;;;;4941769;28;20197;-72
2022/01/16 04:25:01;;;;;;;4.28;3.97;;;23.10;44.70;;;;;;4941427;28;20268;-72
2022/01/16 04:27:26;;;;;;;4.35;4.05;;;23.10;44.70;;;;;;4957567;28;20682;-72
2022/01/16 04:29:52;;;;;;;4.80;4.40;;;23.10;44.70;;;;;;4941646;28;20222;-72
2022/01/16 04:32:18;;;;;;;4.60;4.20;;;23.10;44.70;;;;;;4941612;28;20181;-72
2022/01/16 04:34:43;;;;;;;4.30;4.00;;;23.10;44.70;;;;;;4941445;28;20563;-72
2022/01/16 04:37:09;;;;;;;4.22;3.92;;;23.10;44.70;;;;;;4941404;28;20228;-72
2022/01/16 04:39:36;;;;;;;4.28;3.97;;;23.10;44.70;;;;;;4973095;28;20221;-72
2022/01/16 04:44:49;;;;;;;4.05;3.75;;;23.10;44.70;;;;;;4974773;28;20180;-72
2022/01/16 04:47:16;;;;;;;3.92;3.63;;;23.10;44.70;;;;;;4957157;28;20193;-72
2022/01/16 04:49:41;;;;;;;3.92;3.63;;;23.10;44.70;;;;;;4957161;28;20209;-72
2022/01/16 04:52:07;;;;;;;3.47;3.28;;;23.10;44.70;;;;;;4941288;28;20188;-72
2022/01/16 04:54:33;;;;;;;3.78;3.50;;;23.10;44.60;;;;;;4940889;28;20722;-72
2022/01/16 04:56:59;;;;;;;3.92;3.63;;;23.10;44.60;;;;;;4957182;28;20185;-72
2022/01/16 04:59:25;;;;;;;3.70;3.40;;;23.10;44.60;;;;;;4941000;28;20209;-72
2022/01/16 05:01:51;;;;;;;3.42;3.22;;;23.10;44.60;;;;;;4941012;28;20193;-72
2022/01/16 05:04:17;;;;;;;3.78;3.50;;;23.10;44.60;;;;;;4956913;28;20193;-72
2022/01/16 05:06:43;;;;;;;3.95;3.65;;;23.10;44.60;;;;;;4941232;28;20281;-72
2022/01/16 05:09:09;;;;;;;3.80;3.50;;;23.10;44.60;;;;;;4940908;28;20245;-72
2022/01/16 05:11:37;;;;;;;4.22;3.92;;;23.10;44.60;;;;;;4956852;28;20188;-72
2022/01/16 05:16:35;;;;;;;4.10;3.80;;;23.10;44.60;;;;;;4974026;28;20181;-72
2022/01/16 05:19:12;;;;;;;4.15;3.85;;;23.10;44.60;;;;;;4940867;28;20296;-72
2022/01/16 05:21:40;;;;;;;4.03;3.72;;;23.10;44.60;;;;;;4941088;28;20189;-72
2022/01/16 05:24:10;;;;;;;3.92;3.63;;;23.10;44.60;;;;;;4956860;28;20248;-72
2022/01/16 05:26:42;;;;;;;3.28;3.08;;;23.10;44.60;;;;;;4956681;28;20256;-72
2022/01/16 05:29:10;;;;;;;3.28;3.08;;;23.10;44.60;;;;;;4973626;28;20599;-72
2022/01/16 05:31:37;;;;;;;3.40;3.20;;;23.00;44.50;;;;;;4956701;28;20186;-72
2022/01/16 05:34:03;;;;;;;3.38;3.17;;;23.10;44.50;;;;;;4956750;28;20192;-72
2022/01/16 05:36:29;;;;;;;3.47;3.28;;;23.10;44.60;;;;;;4956257;28;20193;-72
2022/01/16 05:38:55;;;;;;;4.07;3.78;;;23.10;44.50;;;;;;4956376;28;20205;-72
2022/01/16 05:41:22;;;;;;;3.47;3.20;;;23.10;44.50;;;;;;4940568;28;20186;-72
2022/01/16 05:43:49;;;;;;;3.88;3.58;;;23.10;44.50;;;;;;4956789;28;20196;-72
2022/01/16 05:46:14;;;;;;;4.00;3.70;;;23.10;44.50;;;;;;4940089;28;20197;-71
2022/01/16 05:48:41;;;;;;;3.78;3.47;;;23.10;44.50;;;;;;4956209;28;20224;-72
2022/01/16 05:51:06;;;;;;;3.47;3.28;;;23.10;44.50;;;;;;4939912;28;20224;-72
2022/01/16 05:53:32;;;;;;;4.28;3.97;;;23.10;44.50;;;;;;4973521;28;20217;-72
2022/01/16 05:55:58;;;;;;;4.15;3.85;;;23.10;44.50;;;;;;4973261;28;20182;-72
2022/01/16 05:58:24;;;;;;;4.18;3.88;;;23.10;44.40;;;;;;4956152;28;20213;-72
2022/01/16 06:00:49;;;;;;;4.00;3.70;;;23.10;44.50;;;;;;4956605;28;20185;-72
2022/01/16 06:03:15;;;;;;;3.72;3.53;;;23.00;44.40;;;;;;4956209;28;20244;-72
2022/01/16 06:05:41;;;;;;;3.83;3.53;;;23.10;44.40;;;;;;4940006;28;20190;-72
2022/01/16 06:08:10;;;;;;;4.20;3.90;;;23.10;44.50;;;;;;4956243;28;20213;-72
2022/01/16 06:10:36;;;;;;;4.10;3.80;;;23.10;44.50;;;;;;4940092;28;20194;-72
2022/01/16 06:13:04;;;;;;;4.40;4.10;;;23.00;44.40;;;;;;4940516;28;20182;-72
2022/01/16 06:15:30;;;;;;;4.32;4.03;;;23.00;44.40;;;;;;4956086;28;20232;-72
2022/01/16 06:17:56;;;;;;;3.88;3.58;;;23.00;44.40;;;;;;4973317;28;20174;-72
2022/01/16 06:20:22;;;;;;;3.72;3.42;;;23.10;44.50;;;;;;4940098;28;20284;-72
2022/01/16 06:22:47;;;;;;;3.45;3.25;;;23.00;44.40;;;;;;4940145;28;20193;-72
2022/01/16 06:25:14;;;;;;;3.40;3.20;;;23.00;44.40;;;;;;4956149;28;20181;-72
2022/01/16 06:27:40;;;;;;;3.80;3.50;;;23.10;44.40;;;;;;4956143;28;20210;-72
2022/01/16 06:30:09;;;;;;;3.55;3.33;;;23.00;44.30;;;;;;4973039;28;20193;-72
2022/01/16 06:32:36;;;;;;;3.92;3.63;;;23.00;44.30;;;;;;4956201;28;20192;-72
2022/01/16 06:35:03;;;;;;;3.65;3.45;;;23.00;44.40;;;;;;4956002;28;20248;-72
2022/01/16 06:37:29;;;;;;;3.90;3.60;;;23.00;44.30;;;;;;4955577;28;20190;-71
2022/01/16 06:39:54;;;;;;;3.60;3.40;;;23.10;44.40;;;;;;4955730;28;20235;-72
2022/01/16 06:42:20;;;;;;;3.72;3.50;;;23.00;44.90;;;;;;4936513;29;20293;-72
2022/01/16 06:44:46;;;;;;;3.88;3.58;;;23.10;44.30;;;;;;4953657;29;20213;-71
2022/01/16 06:47:12;;;;;;;4.07;3.78;;;23.00;44.20;;;;;;4952816;29;20563;-71
2022/01/16 06:49:38;;;;;;;3.85;3.55;;;23.10;44.30;;;;;;4936821;29;20226;-72
2022/01/16 06:52:04;;;;;;;4.57;4.22;;;23.10;44.30;;;;;;4934056;28;20192;-71
2022/01/16 06:54:30;;;;;;;4.00;3.70;;;23.10;44.40;;;;;;4939915;28;20174;-71
2022/01/16 06:56:56;;;;;;;4.10;3.80;;;23.00;44.20;;;;;;4955970;28;20209;-71
2022/01/16 06:59:22;;;;;;;4.28;3.97;;;23.00;44.20;;;;;;4955807;28;20213;-71
2022/01/16 07:01:47;;;;;;;4.30;4.00;;;23.00;44.30;;;;;;4955761;28;20576;-71
2022/01/16 07:04:13;;;;;;;3.92;3.63;;;23.00;44.30;;;;;;4942744;28;20201;-70
2022/01/16 07:06:39;;;;;;;4.45;4.15;;;23.00;44.30;;;;;;4958890;28;20192;-71
2022/01/16 07:09:04;;;;;;;4.40;4.10;;;23.00;44.40;;;;;;4959197;28;20273;-71
2022/01/16 07:11:30;;;;;;;4.20;3.83;;;23.00;44.30;;;;;;4943142;28;20741;-72
2022/01/16 07:13:56;;;;;;;4.10;3.80;;;23.00;44.20;;;;;;4942916;28;20185;-72
2022/01/16 07:16:22;;;;;;;3.80;3.50;;;23.00;44.30;;;;;;4958839;28;20187;-72
2022/01/16 07:18:48;;;;;;;3.58;3.30;;;23.00;44.30;;;;;;4959378;28;20249;-72
2022/01/16 07:21:15;;;;;;;4.28;3.88;;;23.00;44.20;;;;;;4942373;28;20217;-72
2022/01/16 07:23:43;;;;;;;4.28;3.97;;;23.00;44.20;;;;;;4959164;28;20185;-72
2022/01/16 07:26:09;;;;;;;4.15;3.85;;;23.00;44.20;;;;;;4958427;28;20649;-72
2022/01/16 07:31:04;;;;;;;4.07;3.78;;;23.00;44.20;;;;;;4992636;28;20602;-73
2022/01/16 07:33:30;;;;;;;4.68;4.28;;;23.00;44.10;;;;;;4994489;28;20224;-73
2022/01/16 07:35:55;;;;;;;4.95;4.55;;;23.00;44.70;;;;;;4993402;28;20197;-73
2022/01/16 07:38:21;;;;;;;4.50;4.20;;;23.00;44.00;;;;;;4993055;28;20200;-73
2022/01/16 07:40:47;;;;;;;4.38;4.07;;;23.00;44.10;;;;;;5009836;28;20212;-72
2022/01/16 07:43:14;;;;;;;4.43;4.10;;;23.00;44.00;;;;;;5009480;28;20188;-72
2022/01/16 07:45:40;;;;;;;5.15;4.75;;;23.00;44.10;;;;;;5003936;28;20247;-73
2022/01/16 07:48:07;;;;;;;5.22;4.82;;;23.00;44.60;;;;;;4994311;28;20263;-73
2022/01/16 07:50:35;;;;;;;5.40;5.00;;;23.00;44.10;;;;;;4993257;28;20196;-73
2022/01/16 07:53:01;;;;;;;5.47;5.07;;;23.00;44.10;;;;;;4993131;28;20181;-73
2022/01/16 07:55:27;;;;;;;5.03;4.63;;;23.00;44.00;;;;;;4992924;28;20188;-73
2022/01/16 07:57:57;;;;;;;5.47;5.07;;;23.00;44.10;;;;;;4993444;28;20630;-73
2022/01/16 08:00:25;;;;;;;5.63;5.22;;;23.00;44.10;;;;;;5008670;28;20205;-73
2022/01/16 08:02:52;;;;;;;5.53;5.05;;;23.00;44.20;;;;;;5008476;28;20193;-72
2022/01/16 08:05:20;;;;;;;5.47;5.07;;;23.00;44.20;;;;;;5009273;28;20196;-72
2022/01/16 08:07:47;;;;;;;5.15;4.75;;;23.00;44.10;;;;;;4993700;28;20213;-73
2022/01/16 08:10:13;;;;;;;4.90;4.50;;;23.00;44.10;;;;;;4976799;28;20211;-73
2022/01/16 08:12:39;;;;;;;5.35;4.95;;;23.00;44.10;;;;;;5009280;28;20200;-73
2022/01/16 08:15:08;;;;;;;4.80;4.47;;;23.00;44.00;;;;;;4991830;28;20181;-73
2022/01/16 08:17:36;;;;;;;4.95;4.55;;;23.00;44.10;;;;;;4992613;28;20201;-73
2022/01/16 08:20:05;;;;;;;5.60;5.20;;;23.00;44.10;;;;;;5008866;28;20700;-72
2022/01/16 08:22:31;;;;;;;5.50;5.10;;;23.00;44.10;;;;;;5008503;28;20185;-73
2022/01/16 08:24:57;;;;;;;5.90;5.40;;;23.00;44.10;;;;;;5008479;28;20216;-73
2022/01/16 08:27:23;;;;;;;5.78;5.28;;;23.00;44.00;;;;;;5008543;28;20185;-73
2022/01/16 08:29:49;;;;;;;5.60;5.10;;;23.00;44.10;;;;;;5008786;28;20224;-73
2022/01/16 08:32:16;;;;;;;5.40;5.00;;;23.00;44.10;;;;;;4992507;28;20193;-73
2022/01/16 08:34:42;;;;;;;5.88;5.38;;;23.00;44.00;;;;;;4992115;28;20718;-73
2022/01/16 08:37:08;;;;;;;6.18;5.68;;;23.00;44.10;;;;;;4991960;28;20189;-72
2022/01/16 08:39:34;;;;;;;5.88;5.47;;;23.00;44.00;;;;;;4993055;28;20275;-72
2022/01/16 08:42:00;;;;;;;5.70;5.30;;;23.00;44.10;;;;;;4992806;28;20277;-72
2022/01/16 08:44:26;;;;;;;5.72;5.25;;;23.00;44.10;;;;;;5005284;28;20190;-73
2022/01/16 08:46:52;;;;;;;6.20;5.70;;;23.00;44.00;;;;;;4985647;28;20206;-72
2022/01/16 08:49:17;;;;;;;5.90;5.47;;;23.00;44.00;;;;;;5008230;28;20303;-73
2022/01/16 08:51:43;;;;;;;6.10;5.70;;;23.00;44.10;;;;;;5009007;28;20296;-73
2022/01/16 08:54:09;;;;;;;6.47;5.93;;;23.00;44.10;;;;;;4993926;28;20176;-72
2022/01/16 08:56:35;;;;;;;6.00;5.50;;;23.00;44.10;;;;;;5009025;28;20177;-72
2022/01/16 08:59:00;;;;;;;5.82;5.38;;;23.00;44.00;;;;;;5009224;28;20213;-72
2022/01/16 09:01:26;;;;;;;5.30;4.90;;;23.00;44.10;;;;;;5008864;28;20188;-72
2022/01/16 09:03:52;;;;;;;5.45;5.05;;;23.00;44.10;;;;;;4976324;28;20185;-72
2022/01/16 09:06:19;;;;;;;5.20;4.80;;;23.00;44.00;;;;;;5008561;28;20251;-73
2022/01/16 09:08:45;;;;;;;4.90;4.50;;;23.00;44.10;;;;;;5008881;28;20228;-73
2022/01/16 09:11:11;;;;;;;5.45;5.05;;;23.00;44.10;;;;;;5008746;28;20236;-73
2022/01/16 09:13:40;;;;;;;5.15;4.75;;;23.00;44.60;;;;;;4992434;28;20228;-72
2022/01/16 09:16:07;;;;;;;4.60;4.30;;;23.00;44.00;;;;;;4976043;28;20184;-73
2022/01/16 09:18:34;;;;;;;5.32;4.93;;;23.00;44.10;;;;;;5008426;28;20184;-72
2022/01/16 09:21:01;;;;;;;5.30;4.80;;;23.00;44.10;;;;;;5008580;28;20323;-73
2022/01/16 09:23:28;;;;;;;5.40;5.00;;;23.00;44.00;;;;;;4993418;28;20184;-73
2022/01/16 09:25:54;;;;;;;5.53;5.13;;;23.00;44.10;;;;;;5008424;28;20215;-73
2022/01/16 09:28:19;;;;;;;5.30;4.90;;;23.00;44.10;;;;;;4975870;28;20212;-72
2022/01/16 09:30:45;;;;;;;5.32;4.93;;;23.00;44.10;;;;;;4993102;28;20201;-73
2022/01/16 09:33:11;;;;;;;5.65;5.20;;;23.00;44.80;;;;;;5008443;28;20184;-73
2022/01/16 09:35:37;;;;;;;5.30;4.90;;;23.00;44.30;;;;;;4993044;28;20181;-73
2022/01/16 09:38:05;;;;;;;5.13;4.63;;;23.00;44.30;;;;;;5008355;28;20213;-72
2022/01/16 09:40:31;;;;;;;5.40;5.00;;;23.00;44.40;;;;;;4993271;28;20692;-73
2022/01/16 09:42:57;;;;;;;5.38;4.97;;;23.00;44.40;;;;;;5008593;28;20181;-73
2022/01/16 09:45:24;;;;;;;5.25;4.85;;;23.00;44.40;;;;;;5008303;28;20192;-73
2022/01/16 09:47:50;;;;;;;5.50;5.00;;;23.00;44.40;;;;;;5004595;28;20236;-72
2022/01/16 09:50:23;;;;;;;5.57;5.18;;;23.00;44.40;;;;;;5008044;28;20204;-73
2022/01/16 09:52:50;;;;;;;4.72;4.32;;;23.00;44.20;;;;;;4991638;28;20183;-73
2022/01/16 09:55:20;;;;;;;4.95;4.57;;;23.00;44.30;;;;;;4991985;28;20189;-73
2022/01/16 09:57:46;;;;;;;4.97;4.57;;;23.10;44.20;;;;;;5008082;28;20560;-72
2022/01/16 10:00:17;;;;;;;4.22;3.92;;;23.00;44.20;;;;;;4992880;28;20285;-73
2022/01/16 10:02:45;;;;;;;4.88;4.47;;;23.00;44.10;;;;;;5008104;28;20223;-73
2022/01/16 10:05:39;;;;;;;5.05;4.65;;;23.00;44.10;;;;;;5007808;28;20184;-72
2022/01/16 10:08:09;;;;;;;4.53;4.22;;;23.00;44.10;;;;;;4972587;28;20209;-73
2022/01/16 10:10:38;;;;;;;5.13;4.72;;;23.00;44.00;;;;;;4956068;28;20236;-74
2022/01/16 10:13:32;;;;;;;5.25;4.85;;;23.10;44.20;;;;;;4972071;28;20198;-73
2022/01/16 10:15:59;;;;;;;5.75;5.28;;;23.10;44.10;;;;;;4972327;28;20181;-73
2022/01/16 10:18:38;;;;;;;5.43;5.03;;;23.10;44.10;;;;;;4956267;28;20189;-74
2022/01/16 10:21:05;;;;;;;4.30;4.00;;;23.00;44.10;;;;;;4973491;28;20273;-72
2022/01/16 10:23:40;;;;;;;5.03;4.63;;;23.00;44.10;;;;;;4972102;28;20201;-72
2022/01/16 10:26:16;;;;;;;5.15;4.75;;;23.10;44.10;;;;;;4955742;28;20181;-71
2022/01/16 10:28:42;;;;;;;5.00;4.60;;;23.10;44.20;;;;;;4955830;28;20259;-72
2022/01/16 10:31:23;;;;;;;4.95;4.55;;;23.10;44.10;;;;;;4956385;28;20214;-72
2022/01/16 10:33:50;;;;;;;5.32;4.93;;;23.10;44.10;;;;;;4974080;28;20178;-72
2022/01/16 10:36:38;;;;;;;5.15;4.75;;;23.10;44.10;;;;;;4974623;28;20193;-72
2022/01/16 10:39:10;;;;;;;5.35;4.95;;;23.10;44.20;;;;;;5011355;28;20581;-70
2022/01/16 10:41:36;;;;;;;5.30;4.90;;;23.10;44.20;;;;;;4994741;28;20197;-70
2022/01/16 10:44:02;;;;;;;4.93;4.53;;;23.10;44.20;;;;;;5011477;28;20193;-70
2022/01/16 10:46:28;;;;;;;5.30;4.80;;;23.10;44.30;;;;;;4987100;28;20196;-71
2022/01/16 10:49:17;;;;;;;4.97;4.57;;;23.10;44.30;;;;;;5010949;28;20865;-71
2022/01/16 10:52:06;;;;;;;5.10;4.70;;;23.10;44.30;;;;;;4995857;28;20224;-71
2022/01/16 10:54:37;;;;;;;4.82;4.50;;;23.10;44.20;;;;;;5004885;28;20181;-72
2022/01/16 10:57:26;;;;;;;4.45;4.15;;;23.10;44.20;;;;;;5010868;28;20200;-70
2022/01/16 11:00:08;;;;;;;5.28;4.88;;;23.10;44.30;;;;;;5011798;28;20212;-71
2022/01/16 11:02:34;;;;;;;5.03;4.63;;;23.10;44.40;;;;;;4994733;28;20271;-71
2022/01/16 11:05:20;;;;;;;5.40;4.90;;;23.10;44.40;;;;;;4964046;28;20223;-70
2022/01/16 11:07:56;;;;;;;4.63;4.22;;;23.10;44.40;;;;;;4991864;28;20182;-72
2022/01/16 11:10:23;;;;;;;4.43;4.13;;;23.10;44.40;;;;;;4994320;28;20243;-73
2022/01/16 11:12:50;;;;;;;4.80;4.40;;;23.10;44.40;;;;;;4994906;28;20224;-72
2022/01/16 11:15:17;;;;;;;5.22;4.28;;;23.20;44.40;;;;;;5011236;28;20212;-72
2022/01/16 11:17:43;;;;;;;4.38;4.07;;;23.10;44.30;;;;;;5010967;28;20184;-73
2022/01/16 11:20:10;;;;;;;4.45;4.15;;;23.10;44.40;;;;;;5010612;28;20208;-72
2022/01/16 11:22:57;;;;;;;4.68;4.28;;;23.20;44.40;;;;;;4994943;28;20663;-72
2022/01/16 11:25:31;;;;;;;4.65;4.35;;;23.10;45.00;;;;;;4994603;28;20169;-72
2022/01/16 11:28:15;;;;;;;5.50;5.00;;;23.10;45.00;;;;;;4994741;28;20220;-71
2022/01/16 11:30:49;;;;;;;5.70;5.20;;;23.20;44.40;;;;;;5010417;28;20318;-71
2022/01/16 11:33:17;;;;;;;5.13;4.72;;;23.20;44.50;;;;;;4995644;28;20177;-72
2022/01/16 11:35:55;;;;;;;4.75;4.45;;;23.20;44.60;;;;;;4994374;28;20288;-71
2022/01/16 11:38:27;;;;;;;4.90;4.50;;;23.10;44.50;;;;;;5010330;28;20575;-71
2022/01/16 11:40:53;;;;;;;4.40;4.07;;;23.20;44.50;;;;;;5010577;28;20185;-71
2022/01/16 11:43:34;;;;;;;4.60;4.20;;;23.20;44.60;;;;;;4994308;28;20719;-71
2022/01/16 11:46:11;;;;;;;4.60;4.20;;;23.20;44.60;;;;;;5010197;28;20181;-71
2022/01/16 11:48:43;;;;;;;4.68;4.28;;;23.20;44.50;;;;;;4993641;28;20204;-71
2022/01/16 11:51:39;;;;;;;5.50;5.00;;;23.20;44.50;;;;;;5009959;28;20199;-71
2022/01/16 11:54:29;;;;;;;4.80;4.40;;;23.20;44.50;;;;;;4995473;28;20181;-71
2022/01/16 11:57:23;;;;;;;3.75;3.45;;;23.20;44.60;;;;;;5010641;28;20196;-71
2022/01/16 12:00:08;;;;;;;4.30;4.00;;;23.20;44.60;;;;;;4993344;28;20217;-71
2022/01/16 12:02:48;;;;;;;4.72;4.32;;;23.20;44.60;;;;;;4992296;28;20683;-72
2022/01/16 12:05:27;;;;;;;4.40;4.00;;;23.20;44.50;;;;;;5009672;28;20192;-72
2022/01/16 12:08:09;;;;;;;4.40;4.00;;;23.20;44.50;;;;;;4993664;28;20283;-71
2022/01/16 12:10:50;;;;;;;5.43;4.35;;;23.20;44.80;;;;;;4995049;28;20208;-72
2022/01/16 12:13:42;;;;;;;4.90;4.50;;;23.20;44.80;;;;;;5010169;28;20189;-71
2022/01/16 12:16:35;;;;;;;4.35;4.05;;;23.20;44.70;;;;;;5009731;28;20173;-71
2022/01/16 12:19:43;;;;;;;3.85;3.55;;;23.20;44.70;;;;;;5008441;28;20681;-69
2022/01/16 12:22:14;;;;;;;4.15;3.75;;;23.30;44.80;;;;;;5009761;28;20191;-71
2022/01/16 12:25:04;;;;;;;4.40;4.00;;;23.20;44.80;;;;;;5003902;28;20189;-72
2022/01/16 12:27:39;;;;;;;4.22;3.92;;;23.30;44.90;;;;;;5003004;28;20193;-72
2022/01/16 12:30:16;;;;;;;3.75;3.45;;;23.20;44.80;;;;;;5009678;28;20216;-71
2022/01/16 12:32:55;;;;;;;4.53;4.13;;;23.30;45.00;;;;;;5009840;28;20185;-71
2022/01/16 12:35:45;;;;;;;7.13;3.83;;;23.20;44.90;;;;;;5008395;28;20187;-71
2022/01/16 12:38:15;;;;;;;4.68;4.00;;;23.30;45.00;;;;;;4983602;28;20193;-70
2022/01/16 12:40:51;;;;;;;12.38;4.40;;;23.30;44.90;;;;;;4992936;28;20212;-70
2022/01/16 12:43:27;;;;;;;4.57;3.78;;;23.30;46.70;;;;;;5001743;28;20191;-70
2022/01/16 12:45:54;;;;;;;6.78;3.85;;;23.40;46.20;;;;;;4993802;28;20181;-70
2022/01/16 12:48:21;;;;;;;5.32;3.60;;;23.40;46.50;;;;;;4992677;28;20708;-69
2022/01/16 12:50:49;;;;;;;5.40;3.10;;;23.40;47.00;;;;;;5009039;28;20184;-71
2022/01/16 12:53:41;;;;;;;6.93;4.03;;;23.40;47.00;;;;;;4992862;28;20185;-68
2022/01/16 12:56:30;;;;;;;4.50;3.40;;;23.40;47.40;;;;;;4993810;28;20192;-71
2022/01/16 12:59:18;;;;;;;4.38;3.60;;;23.50;47.70;;;;;;4992750;28;20205;-71
2022/01/16 13:01:54;;;;;;;3.63;3.33;;;23.50;48.00;;;;;;4992534;28;20180;-70
2022/01/16 13:04:30;;;;;;;3.85;3.40;;;23.50;47.80;;;;;;4992700;28;20241;-71
2022/01/16 13:06:59;;;;;;;8.20;3.50;;;23.50;48.00;;;;;;4984805;28;20276;-71
2022/01/16 13:09:28;;;;;;;3.63;3.30;;;23.50;48.10;;;;;;4991930;28;20231;-71
2022/01/16 13:11:59;;;;;;;4.68;3.25;;;23.50;48.40;;;;;;4992373;28;20181;-71
2022/01/16 13:14:29;;;;;;;4.35;3.33;;;23.50;48.10;;;;;;5008681;28;20169;-69
2022/01/16 13:17:03;;;;;;;4.95;3.10;;;23.50;48.20;;;;;;5008570;28;20184;-71
2022/01/16 13:19:50;;;;;;;5.20;3.45;;;23.50;48.50;;;;;;4976164;28;20339;-73
2022/01/16 13:22:37;;;;;;;4.82;4.00;;;23.50;48.60;;;;;;4993551;28;20195;-71
2022/01/16 13:25:10;;;;;;;3.85;3.53;;;23.50;48.60;;;;;;5008685;28;20185;-72
2022/01/16 13:27:37;;;;;;;4.90;3.88;;;23.50;48.70;;;;;;5008778;28;20180;-71
2022/01/16 13:30:16;;;;;;;5.38;3.53;;;23.50;49.00;;;;;;5008093;23;20346;-68
2022/01/16 13:32:42;;;;;;;5.28;3.47;;;23.50;49.00;;;;;;4987385;28;20190;-68
2022/01/16 13:35:23;;;;;;;5.75;3.60;;;23.50;49.20;;;;;;4975679;28;20180;-68
2022/01/16 13:37:53;;;;;;;3.40;3.00;;;23.50;49.90;;;;;;4992323;28;20197;-67
2022/01/16 13:40:25;;;;;;;3.50;3.08;;;23.50;49.60;;;;;;4962379;28;20233;-67
2022/01/16 13:45:35;;;;;;;4.50;3.53;;;23.50;50.00;;;;;;4973729;28;20182;-67
2022/01/16 13:48:16;;;;;;;5.00;4.10;;;23.60;50.10;;;;;;4989110;28;20259;-67
2022/01/16 13:51:00;;;;;;;4.07;3.72;;;23.60;50.10;;;;;;4956647;28;20217;-68